KAXS/AXS METAR and TAF weather

Enter ICAO airport designator
Station Type Date Time Source
KAXS METAR 2021/07/26 12:15 UTC NOAA

KAXS 261215Z AUTO 08010KT 7SM CLR 24/18 A3003 RMK AO2 T02410182


Station Type Date Time Source
KAXS Decoded METAR 2021/07/26 12:15 UTC NOAA

Altus, Altus/Quartz Mountain Regional Airport, OK, United States (KAXS) 34-41-55N 099-20-17W
Jul 26, 2021 - 08:15 AM EDT / 2021.07.26 1215 UTC
Wind: from the E (080 degrees) at 12 MPH (10 KT):0
Visibility: 7 mile(s):0
Sky conditions: clear
Temperature: 75.4 F (24.1 C)
Dew Point: 64.8 F (18.2 C)
Relative Humidity: 69%
Pressure (altimeter): 30.03 in. Hg (1016 hPa)
ob: KAXS 261215Z AUTO 08010KT 7SM CLR 24/18 A3003 RMK AO2 T02410182
cycle: 12

Station Type Date Time Source
KAXS TAF UTC NOAA

Error!

Example: see airport list